Time;durP1;ratioP1;P1;durP2;ratioP2;P2;SDS_P1;SDS_P2;PMS_P1;PMS_P2;Temp;Humidity;BMP_temperature;BMP_pressure;BME280_temperature;BME280_humidity;BME280_pressure;Samples;Min_cycle;Max_cycle;Signal;HPM_P1;HPM_P2
2022/09/30 00:00:40;;;;;;;0.50;0.50;;;;;;;;;;1706859;83;26291;-60
2022/09/30 00:03:07;;;;;;;0.50;0.50;;;;;;;;;;1698337;83;26290;-60
2022/09/30 00:05:34;;;;;;;0.68;0.68;;;;;;;;;;1706701;83;26231;-60
2022/09/30 00:08:02;;;;;;;0.60;0.60;;;;;;;;;;1701796;83;26397;-60
2022/09/30 00:10:29;;;;;;;2.45;0.68;;;;;;;;;;1706809;83;26755;-59
2022/09/30 00:12:57;;;;;;;1.52;0.70;;;;;;;;;;1706399;83;26306;-60
2022/09/30 00:15:24;;;;;;;0.75;0.57;;;;;;;;;;1700730;83;26731;-60
2022/09/30 00:17:52;;;;;;;3.83;0.80;;;;;;;;;;1694264;83;26299;-60
2022/09/30 00:20:19;;;;;;;0.80;0.60;;;;;;;;;;1694205;83;26287;-60
2022/09/30 00:22:46;;;;;;;0.55;0.55;;;;;;;;;;1693692;83;26315;-59
2022/09/30 00:25:15;;;;;;;0.50;0.50;;;;;;;;;;1708690;83;26340;-59
2022/09/30 00:27:42;;;;;;;0.50;0.50;;;;;;;;;;1694238;83;26315;-60
2022/09/30 00:30:10;;;;;;;0.60;0.60;;;;;;;;;;1694275;83;26299;-60
2022/09/30 00:32:42;;;;;;;0.60;0.60;;;;;;;;;;1694160;83;26398;-58
2022/09/30 00:35:10;;;;;;;0.85;0.60;;;;;;;;;;1693097;83;26312;-60
2022/09/30 00:37:37;;;;;;;0.50;0.50;;;;;;;;;;1690413;83;26296;-60
2022/09/30 00:40:05;;;;;;;1.30;0.50;;;;;;;;;;1694324;83;26303;-60
2022/09/30 00:42:32;;;;;;;0.82;0.70;;;;;;;;;;1695926;83;26299;-60
2022/09/30 00:45:07;;;;;;;0.98;0.68;;;;;;;;;;1694373;83;27465;-60
2022/09/30 00:47:38;;;;;;;0.70;0.70;;;;;;;;;;1694216;83;26306;-60
2022/09/30 00:50:20;;;;;;;0.72;0.62;;;;;;;;;;1694550;83;26346;-60
2022/09/30 00:52:51;;;;;;;0.53;0.53;;;;;;;;;;1709458;83;26422;-60
2022/09/30 00:58:14;;;;;;;0.60;0.60;;;;;;;;;;1756748;81;26349;-60
2022/09/30 01:00:42;;;;;;;2.98;0.60;;;;;;;;;;1760949;81;26353;-59
2022/09/30 01:03:09;;;;;;;1.32;0.78;;;;;;;;;;1761515;81;26336;-59
2022/09/30 01:05:36;;;;;;;2.40;0.75;;;;;;;;;;1753695;80;26316;-60
2022/09/30 01:08:05;;;;;;;1.42;0.70;;;;;;;;;;1738095;81;26780;-59
2022/09/30 01:10:32;;;;;;;1.52;0.60;;;;;;;;;;1738128;81;26341;-60
2022/09/30 01:13:00;;;;;;;0.60;0.60;;;;;;;;;;1761428;81;26737;-59
2022/09/30 01:15:29;;;;;;;0.60;0.60;;;;;;;;;;1746172;81;26321;-59
2022/09/30 01:17:57;;;;;;;2.80;0.68;;;;;;;;;;1744560;81;26411;-60
2022/09/30 01:20:35;;;;;;;1.42;0.60;;;;;;;;;;1744170;81;26307;-59
2022/09/30 01:23:04;;;;;;;1.60;0.70;;;;;;;;;;1742535;81;26288;-59
2022/09/30 01:25:36;;;;;;;0.70;0.70;;;;;;;;;;1743884;81;26305;-59
2022/09/30 01:28:14;;;;;;;2.67;0.60;;;;;;;;;;1745692;81;26237;-60
2022/09/30 01:30:56;;;;;;;2.80;0.62;;;;;;;;;;1744447;81;26317;-58
2022/09/30 01:33:30;;;;;;;0.50;0.50;;;;;;;;;;1744874;81;26257;-57
2022/09/30 01:36:02;;;;;;;2.55;0.70;;;;;;;;;;1743449;81;26308;-61
2022/09/30 01:38:31;;;;;;;1.92;0.60;;;;;;;;;;1744963;81;26363;-59
2022/09/30 01:41:03;;;;;;;1.57;0.70;;;;;;;;;;1744823;81;26344;-60
2022/09/30 01:43:32;;;;;;;0.53;0.53;;;;;;;;;;1746883;81;26785;-60
2022/09/30 01:46:01;;;;;;;0.57;0.57;;;;;;;;;;1744580;81;26374;-60
2022/09/30 01:48:33;;;;;;;1.80;0.65;;;;;;;;;;1744935;81;26899;-60
2022/09/30 01:51:14;;;;;;;0.53;0.53;;;;;;;;;;1745676;81;26289;-56
2022/09/30 01:53:43;;;;;;;0.65;0.60;;;;;;;;;;1734355;80;26348;-60
2022/09/30 01:56:14;;;;;;;0.60;0.50;;;;;;;;;;1748874;81;26297;-59
2022/09/30 01:58:43;;;;;;;1.45;0.50;;;;;;;;;;1743764;81;26726;-60
2022/09/30 02:01:12;;;;;;;0.57;0.57;;;;;;;;;;1761119;81;26766;-59
2022/09/30 02:03:41;;;;;;;0.50;0.50;;;;;;;;;;1752750;81;26364;-60
2022/09/30 02:06:10;;;;;;;0.53;0.53;;;;;;;;;;1758525;81;26279;-60
2022/09/30 02:08:51;;;;;;;0.62;0.60;;;;;;;;;;1758823;81;26297;-60
2022/09/30 02:11:19;;;;;;;0.33;0.33;;;;;;;;;;1748787;81;26351;-59
2022/09/30 02:13:48;;;;;;;0.47;0.47;;;;;;;;;;1739856;81;26347;-59
2022/09/30 02:16:17;;;;;;;0.90;0.40;;;;;;;;;;1754740;81;26330;-60
2022/09/30 02:18:46;;;;;;;0.50;0.50;;;;;;;;;;1751327;81;26677;-58
2022/09/30 02:21:15;;;;;;;0.50;0.50;;;;;;;;;;1742167;81;26397;-58
2022/09/30 02:23:44;;;;;;;1.22;0.55;;;;;;;;;;1742755;81;26287;-60
2022/09/30 02:26:12;;;;;;;1.57;0.70;;;;;;;;;;1750703;81;26400;-60
2022/09/30 02:28:41;;;;;;;1.20;0.60;;;;;;;;;;1750359;81;26353;-58
2022/09/30 02:31:09;;;;;;;0.90;0.35;;;;;;;;;;1744480;81;26339;-59
2022/09/30 02:33:47;;;;;;;1.25;0.57;;;;;;;;;;1733500;81;26324;-58
2022/09/30 02:36:16;;;;;;;2.80;0.70;;;;;;;;;;1739584;81;26343;-58
2022/09/30 02:38:46;;;;;;;1.67;0.40;;;;;;;;;;1749300;81;26360;-58
2022/09/30 02:41:15;;;;;;;2.12;0.60;;;;;;;;;;1743910;81;26315;-58
2022/09/30 02:43:42;;;;;;;2.52;0.68;;;;;;;;;;1750707;81;26410;-60
2022/09/30 02:46:20;;;;;;;2.47;0.60;;;;;;;;;;1750837;81;26300;-60
2022/09/30 02:49:04;;;;;;;1.25;0.60;;;;;;;;;;1743211;81;26326;-60
2022/09/30 02:51:36;;;;;;;1.15;0.50;;;;;;;;;;1750759;81;26285;-60
2022/09/30 02:54:05;;;;;;;0.50;0.50;;;;;;;;;;1750691;81;26359;-60
2022/09/30 02:56:39;;;;;;;1.55;0.47;;;;;;;;;;1748888;81;26971;-61
2022/09/30 02:59:06;;;;;;;0.60;0.60;;;;;;;;;;1744322;81;26379;-60
2022/09/30 03:01:34;;;;;;;0.60;0.55;;;;;;;;;;1745684;81;26704;-60
2022/09/30 03:04:05;;;;;;;1.85;0.60;;;;;;;;;;1745652;81;26771;-58
2022/09/30 03:06:34;;;;;;;1.17;0.50;;;;;;;;;;1745625;81;26771;-60
2022/09/30 03:09:01;;;;;;;1.35;0.30;;;;;;;;;;1745666;81;26300;-59
2022/09/30 03:11:29;;;;;;;1.70;0.72;;;;;;;;;;1745612;81;26287;-59
2022/09/30 03:14:15;;;;;;;1.30;0.60;;;;;;;;;;1745671;81;26283;-59
2022/09/30 03:16:44;;;;;;;1.10;0.65;;;;;;;;;;1736692;81;26859;-59
2022/09/30 03:22:10;;;;;;;2.77;0.57;;;;;;;;;;1775348;78;26773;-59
2022/09/30 03:24:55;;;;;;;0.50;0.50;;;;;;;;;;1791519;78;26289;-59
2022/09/30 03:27:31;;;;;;;1.55;0.70;;;;;;;;;;1796549;78;26375;-60
2022/09/30 03:30:06;;;;;;;0.60;0.60;;;;;;;;;;1796412;78;26817;-60
2022/09/30 03:32:50;;;;;;;0.47;0.47;;;;;;;;;;1790557;78;26333;-58
2022/09/30 03:35:22;;;;;;;1.12;0.40;;;;;;;;;;1795877;78;26328;-60
2022/09/30 03:37:54;;;;;;;0.40;0.40;;;;;;;;;;1796004;78;26800;-59
2022/09/30 03:40:38;;;;;;;0.40;0.40;;;;;;;;;;1819619;78;26265;-60
2022/09/30 03:43:13;;;;;;;0.50;0.50;;;;;;;;;;1796390;80;26318;-60
2022/09/30 03:46:00;;;;;;;0.40;0.37;;;;;;;;;;1796500;79;26365;-59
2022/09/30 03:48:28;;;;;;;0.40;0.40;;;;;;;;;;1796357;78;26290;-60
2022/09/30 03:50:56;;;;;;;0.50;0.50;;;;;;;;;;1796627;79;26772;-60
2022/09/30 03:53:25;;;;;;;0.47;0.47;;;;;;;;;;1796604;80;26433;-59
2022/09/30 03:55:52;;;;;;;2.17;0.60;;;;;;;;;;1779101;80;26245;-60
2022/09/30 03:58:23;;;;;;;0.50;0.50;;;;;;;;;;1796418;78;26253;-59
2022/09/30 04:00:52;;;;;;;1.50;0.45;;;;;;;;;;1793425;78;26226;-60
2022/09/30 04:03:21;;;;;;;0.55;0.55;;;;;;;;;;1796727;78;26289;-60
2022/09/30 04:05:49;;;;;;;0.40;0.40;;;;;;;;;;1796542;78;26365;-59
2022/09/30 04:08:16;;;;;;;0.50;0.50;;;;;;;;;;1788954;78;26276;-59
2022/09/30 04:10:44;;;;;;;0.50;0.50;;;;;;;;;;1791340;78;26351;-59
2022/09/30 04:13:11;;;;;;;0.30;0.30;;;;;;;;;;1789811;78;26274;-60
2022/09/30 04:15:39;;;;;;;0.40;0.40;;;;;;;;;;1795035;78;26380;-60
2022/09/30 04:18:07;;;;;;;0.50;0.50;;;;;;;;;;1793270;78;26912;-60
2022/09/30 04:20:34;;;;;;;0.50;0.50;;;;;;;;;;1794689;78;26216;-59
2022/09/30 04:23:02;;;;;;;0.75;0.50;;;;;;;;;;1817189;78;26334;-59
2022/09/30 04:25:30;;;;;;;0.50;0.50;;;;;;;;;;1799025;78;26422;-60
2022/09/30 04:27:57;;;;;;;0.68;0.40;;;;;;;;;;1791257;79;26262;-60
2022/09/30 04:30:24;;;;;;;0.50;0.50;;;;;;;;;;1785369;78;26263;-59
2022/09/30 04:32:51;;;;;;;1.57;0.60;;;;;;;;;;1787964;79;26299;-60
2022/09/30 04:35:19;;;;;;;1.85;0.40;;;;;;;;;;1780926;79;26293;-59
2022/09/30 04:37:46;;;;;;;1.37;0.60;;;;;;;;;;1797170;78;26340;-59
2022/09/30 04:40:14;;;;;;;0.50;0.50;;;;;;;;;;1787900;79;26263;-60
2022/09/30 04:42:42;;;;;;;0.95;0.45;;;;;;;;;;1784423;78;26267;-59
2022/09/30 04:45:10;;;;;;;1.35;0.60;;;;;;;;;;1794447;78;26774;-59
2022/09/30 04:47:38;;;;;;;1.82;0.60;;;;;;;;;;1780297;78;26747;-60
2022/09/30 04:50:07;;;;;;;1.65;0.55;;;;;;;;;;1784557;78;26765;-59
2022/09/30 04:52:34;;;;;;;0.40;0.40;;;;;;;;;;1789788;79;26356;-59
2022/09/30 04:55:01;;;;;;;0.70;0.60;;;;;;;;;;1783263;79;26262;-59
2022/09/30 04:57:29;;;;;;;0.50;0.50;;;;;;;;;;1781307;78;26360;-60
2022/09/30 04:59:56;;;;;;;0.42;0.42;;;;;;;;;;1788076;78;26283;-59
2022/09/30 05:02:23;;;;;;;0.50;0.50;;;;;;;;;;1795973;78;26264;-59
2022/09/30 05:04:51;;;;;;;0.35;0.35;;;;;;;;;;1806162;78;26252;-60
2022/09/30 05:07:18;;;;;;;0.42;0.42;;;;;;;;;;1808047;78;26248;-60
2022/09/30 05:09:45;;;;;;;1.05;0.50;;;;;;;;;;1808197;78;26359;-60
2022/09/30 05:12:14;;;;;;;0.50;0.50;;;;;;;;;;1808152;78;26369;-60
2022/09/30 05:14:41;;;;;;;0.42;0.42;;;;;;;;;;1802102;78;26327;-60
2022/09/30 05:17:09;;;;;;;1.55;0.60;;;;;;;;;;1786282;78;26325;-60
2022/09/30 05:19:36;;;;;;;0.50;0.50;;;;;;;;;;1788149;79;26734;-60
2022/09/30 05:22:04;;;;;;;1.30;0.50;;;;;;;;;;1776809;78;26346;-60
2022/09/30 05:24:31;;;;;;;0.50;0.50;;;;;;;;;;1809795;78;26310;-60
2022/09/30 05:26:58;;;;;;;0.60;0.60;;;;;;;;;;1813960;78;26717;-60
2022/09/30 05:29:26;;;;;;;0.70;0.70;;;;;;;;;;1805085;78;26668;-60
2022/09/30 05:31:53;;;;;;;0.50;0.50;;;;;;;;;;1809036;78;26240;-60
2022/09/30 05:34:21;;;;;;;1.22;0.65;;;;;;;;;;1791614;78;26342;-60
2022/09/30 05:36:49;;;;;;;3.22;0.60;;;;;;;;;;1798334;78;26934;-60
2022/09/30 05:39:16;;;;;;;0.80;0.50;;;;;;;;;;1795755;78;27338;-60
2022/09/30 05:41:43;;;;;;;0.50;0.50;;;;;;;;;;1801617;78;26303;-61
2022/09/30 05:44:10;;;;;;;0.62;0.62;;;;;;;;;;1811279;78;26312;-60
2022/09/30 05:46:38;;;;;;;1.95;0.70;;;;;;;;;;1792511;79;26821;-61
2022/09/30 05:49:05;;;;;;;2.27;0.80;;;;;;;;;;1808537;78;26300;-60
2022/09/30 05:51:32;;;;;;;0.68;0.68;;;;;;;;;;1807953;78;26314;-60
2022/09/30 05:54:00;;;;;;;1.57;0.70;;;;;;;;;;1808009;78;26862;-60
2022/09/30 05:56:27;;;;;;;0.50;0.50;;;;;;;;;;1808127;78;26799;-60
2022/09/30 05:58:54;;;;;;;0.70;0.70;;;;;;;;;;1807988;78;26293;-60
2022/09/30 06:01:22;;;;;;;1.07;0.80;;;;;;;;;;1807919;78;26275;-60
2022/09/30 06:03:49;;;;;;;0.80;0.80;;;;;;;;;;1807768;78;26263;-61
2022/09/30 06:06:17;;;;;;;0.70;0.70;;;;;;;;;;1807678;78;26287;-60
2022/09/30 06:08:45;;;;;;;0.80;0.80;;;;;;;;;;1799654;78;26445;-60
2022/09/30 06:11:14;;;;;;;0.80;0.80;;;;;;;;;;1808100;78;26302;-61
2022/09/30 06:13:42;;;;;;;0.60;0.60;;;;;;;;;;1808021;78;26752;-60
2022/09/30 06:16:10;;;;;;;0.70;0.70;;;;;;;;;;1807659;78;26268;-60
2022/09/30 06:18:40;;;;;;;1.45;0.70;;;;;;;;;;1805865;78;26363;-60
2022/09/30 06:21:07;;;;;;;0.70;0.70;;;;;;;;;;1812724;78;26325;-60
2022/09/30 06:23:35;;;;;;;0.82;0.70;;;;;;;;;;1806635;78;26249;-60
2022/09/30 06:26:03;;;;;;;0.98;0.70;;;;;;;;;;1802955;78;26366;-60
2022/09/30 06:28:34;;;;;;;0.70;0.70;;;;;;;;;;1803027;78;26280;-58
2022/09/30 06:31:01;;;;;;;0.70;0.70;;;;;;;;;;1803190;78;26664;-60
2022/09/30 06:33:28;;;;;;;1.35;0.90;;;;;;;;;;1802936;78;26228;-60
2022/09/30 06:35:55;;;;;;;0.60;0.60;;;;;;;;;;1801682;78;26724;-60
2022/09/30 06:38:23;;;;;;;1.27;0.80;;;;;;;;;;1793758;78;26346;-60
2022/09/30 06:40:50;;;;;;;0.82;0.75;;;;;;;;;;1801913;78;26268;-60
2022/09/30 06:43:18;;;;;;;0.80;0.80;;;;;;;;;;1803168;79;26291;-60
2022/09/30 06:45:46;;;;;;;0.78;0.70;;;;;;;;;;1802975;79;26825;-60
2022/09/30 06:48:15;;;;;;;0.60;0.60;;;;;;;;;;1803180;79;26256;-58
2022/09/30 06:50:42;;;;;;;1.32;0.75;;;;;;;;;;1798432;78;26353;-57
2022/09/30 06:53:10;;;;;;;1.00;0.68;;;;;;;;;;1798323;78;26346;-61
2022/09/30 06:55:38;;;;;;;1.65;0.70;;;;;;;;;;1800452;78;26502;-57
2022/09/30 06:58:10;;;;;;;0.70;0.70;;;;;;;;;;1801249;79;26838;-62
2022/09/30 07:00:37;;;;;;;2.50;0.95;;;;;;;;;;1797981;78;26330;-59
2022/09/30 07:03:08;;;;;;;2.22;0.70;;;;;;;;;;1786884;79;26342;-63
2022/09/30 07:05:34;;;;;;;0.72;0.72;;;;;;;;;;1802019;78;26385;-67
2022/09/30 07:08:02;;;;;;;1.10;0.70;;;;;;;;;;1799277;78;26638;-65
2022/09/30 07:10:29;;;;;;;4.58;0.70;;;;;;;;;;1801057;78;26261;-61
2022/09/30 07:12:56;;;;;;;0.60;0.60;;;;;;;;;;1795528;78;26702;-62
2022/09/30 07:15:24;;;;;;;1.52;0.70;;;;;;;;;;1799855;78;26279;-63
2022/09/30 07:18:00;;;;;;;1.57;0.70;;;;;;;;;;1801811;78;26264;-64
2022/09/30 07:20:23;;;;;;;3.40;0.80;;;;;;;;;;1790677;79;26288;-59
2022/09/30 07:22:52;;;;;;;0.60;0.60;;;;;;;;;;1801221;78;26867;-59
2022/09/30 07:25:19;;;;;;;0.60;0.60;;;;;;;;;;1801906;78;26312;-58
2022/09/30 07:27:46;;;;;;;0.70;0.70;;;;;;;;;;1802792;78;26896;-59
2022/09/30 07:30:14;;;;;;;1.55;0.75;;;;;;;;;;1804996;78;27507;-58
2022/09/30 07:32:42;;;;;;;0.60;0.60;;;;;;;;;;1813040;78;26280;-58
2022/09/30 07:35:09;;;;;;;0.60;0.60;;;;;;;;;;1801710;78;26818;-62
2022/09/30 07:37:36;;;;;;;0.93;0.70;;;;;;;;;;1798650;79;26280;-63
2022/09/30 07:40:05;;;;;;;1.40;0.60;;;;;;;;;;1801290;79;26307;-63
2022/09/30 07:42:32;;;;;;;0.80;0.80;;;;;;;;;;1799489;78;26357;-62
2022/09/30 07:45:00;;;;;;;0.60;0.60;;;;;;;;;;1799944;78;27498;-63
2022/09/30 07:47:28;;;;;;;0.60;0.60;;;;;;;;;;1794484;78;26295;-62
2022/09/30 07:49:55;;;;;;;1.50;0.85;;;;;;;;;;1803552;78;26279;-58
2022/09/30 07:52:22;;;;;;;1.02;0.80;;;;;;;;;;1799589;78;26267;-58
2022/09/30 07:54:50;;;;;;;8.88;0.80;;;;;;;;;;1801609;78;26380;-56
2022/09/30 07:57:17;;;;;;;0.88;0.55;;;;;;;;;;1801831;78;26346;-53
2022/09/30 07:59:44;;;;;;;0.60;0.60;;;;;;;;;;1801689;79;26803;-55
2022/09/30 08:02:13;;;;;;;2.70;0.98;;;;;;;;;;1801759;78;27341;-60
2022/09/30 08:04:41;;;;;;;1.40;0.70;;;;;;;;;;1800068;78;26343;-67
2022/09/30 08:07:08;;;;;;;0.68;0.68;;;;;;;;;;1802032;78;26821;-66
2022/09/30 08:09:36;;;;;;;0.60;0.60;;;;;;;;;;1801880;78;26268;-66
2022/09/30 08:12:04;;;;;;;0.57;0.57;;;;;;;;;;1796432;78;26330;-67
2022/09/30 08:14:31;;;;;;;0.80;0.80;;;;;;;;;;1801936;78;26260;-68
2022/09/30 08:16:59;;;;;;;0.80;0.60;;;;;;;;;;1799539;78;28826;-61
2022/09/30 08:19:27;;;;;;;0.80;0.80;;;;;;;;;;1810781;78;26299;-60
2022/09/30 08:21:54;;;;;;;0.62;0.62;;;;;;;;;;1810660;78;26360;-62
2022/09/30 08:24:22;;;;;;;0.60;0.60;;;;;;;;;;1795311;78;26390;-62
2022/09/30 08:26:50;;;;;;;0.80;0.80;;;;;;;;;;1792404;78;26738;-64
2022/09/30 08:29:17;;;;;;;0.60;0.60;;;;;;;;;;1792403;78;26282;-64
2022/09/30 08:31:44;;;;;;;1.12;0.70;;;;;;;;;;1792179;78;26300;-70
2022/09/30 08:34:12;;;;;;;1.22;0.60;;;;;;;;;;1792416;78;26270;-72
2022/09/30 08:36:39;;;;;;;1.82;0.90;;;;;;;;;;1792898;78;26355;-62
2022/09/30 08:39:06;;;;;;;0.72;0.72;;;;;;;;;;1792788;78;26927;-59
2022/09/30 08:41:35;;;;;;;2.95;0.70;;;;;;;;;;1792359;79;26218;-63
2022/09/30 08:44:16;;;;;;;0.80;0.80;;;;;;;;;;1790534;80;26341;-64
2022/09/30 08:46:45;;;;;;;3.85;0.70;;;;;;;;;;1776200;78;26275;-69
2022/09/30 08:49:22;;;;;;;0.70;0.70;;;;;;;;;;1808356;78;26268;-67
2022/09/30 08:51:51;;;;;;;0.70;0.70;;;;;;;;;;1792195;78;26722;-68
2022/09/30 08:54:20;;;;;;;2.37;0.60;;;;;;;;;;1786172;79;26258;-73
2022/09/30 08:56:48;;;;;;;1.37;0.60;;;;;;;;;;1792160;78;26266;-70
2022/09/30 08:59:17;;;;;;;0.65;0.65;;;;;;;;;;1792179;78;27484;-62
2022/09/30 09:01:46;;;;;;;22.48;1.62;;;;;;;;;;1792290;78;26298;-63
2022/09/30 09:04:13;;;;;;;2.52;0.70;;;;;;;;;;1792417;78;26328;-62
2022/09/30 09:06:54;;;;;;;0.93;0.70;;;;;;;;;;1792253;78;26281;-60
2022/09/30 09:09:35;;;;;;;1.12;0.60;;;;;;;;;;1792024;78;26409;-62
2022/09/30 09:12:07;;;;;;;0.70;0.70;;;;;;;;;;1792440;79;26331;-51
2022/09/30 09:14:51;;;;;;;0.60;0.60;;;;;;;;;;1802623;78;26776;-65
2022/09/30 09:17:32;;;;;;;0.70;0.70;;;;;;;;;;1804205;78;26348;-63
2022/09/30 09:20:01;;;;;;;1.45;0.62;;;;;;;;;;1802400;78;26694;-65
2022/09/30 09:22:30;;;;;;;0.70;0.70;;;;;;;;;;1803193;78;27110;-66
2022/09/30 09:24:57;;;;;;;2.15;0.85;;;;;;;;;;1798261;78;26608;-62
2022/09/30 09:27:29;;;;;;;0.50;0.50;;;;;;;;;;1795431;78;26329;-69
2022/09/30 09:30:01;;;;;;;0.60;0.60;;;;;;;;;;1784390;78;26344;-70
2022/09/30 09:32:29;;;;;;;0.70;0.70;;;;;;;;;;1792358;79;26804;-49
2022/09/30 09:35:03;;;;;;;0.80;0.80;;;;;;;;;;1795417;78;26351;-53
2022/09/30 09:40:22;;;;;;;0.75;0.75;;;;;;;;;;1800563;79;26794;-61
2022/09/30 09:42:51;;;;;;;0.72;0.72;;;;;;;;;;1795539;78;26257;-61
2022/09/30 09:45:23;;;;;;;0.70;0.70;;;;;;;;;;1793766;78;26264;-61
2022/09/30 09:47:52;;;;;;;0.82;0.82;;;;;;;;;;1794588;78;25380;-61
2022/09/30 09:50:21;;;;;;;0.57;0.57;;;;;;;;;;1813335;78;26223;-60
2022/09/30 09:53:07;;;;;;;0.80;0.80;;;;;;;;;;1822041;78;27325;-60
2022/09/30 09:55:35;;;;;;;0.90;0.90;;;;;;;;;;1820457;78;26633;-61
2022/09/30 09:58:06;;;;;;;0.80;0.80;;;;;;;;;;1820380;78;26396;-60
2022/09/30 10:03:22;;;;;;;0.70;0.70;;;;;;;;;;1820836;78;26354;-67
2022/09/30 10:06:09;;;;;;;0.80;0.80;;;;;;;;;;1820526;78;27162;-60
2022/09/30 10:08:38;;;;;;;0.65;0.65;;;;;;;;;;1821668;78;26317;-62
2022/09/30 10:11:06;;;;;;;0.70;0.70;;;;;;;;;;1822261;78;26286;-62
2022/09/30 10:13:44;;;;;;;0.65;0.65;;;;;;;;;;1818733;78;26364;-56
2022/09/30 10:16:29;;;;;;;1.30;0.70;;;;;;;;;;1816485;78;26262;-69
2022/09/30 10:18:57;;;;;;;1.30;0.70;;;;;;;;;;1821199;78;26298;-63
2022/09/30 10:21:26;;;;;;;0.60;0.60;;;;;;;;;;1818626;78;26695;-65
2022/09/30 10:23:54;;;;;;;0.70;0.70;;;;;;;;;;1822682;78;26251;-65
2022/09/30 10:26:23;;;;;;;0.70;0.70;;;;;;;;;;1819148;78;26337;-65
2022/09/30 10:28:55;;;;;;;0.72;0.72;;;;;;;;;;1820165;78;26717;-65
2022/09/30 10:31:36;;;;;;;0.80;0.80;;;;;;;;;;1820512;78;26270;-65
2022/09/30 10:34:11;;;;;;;0.80;0.80;;;;;;;;;;1821444;78;26219;-63
2022/09/30 10:36:39;;;;;;;1.70;0.72;;;;;;;;;;1820979;78;26328;-61
2022/09/30 10:39:08;;;;;;;0.80;0.80;;;;;;;;;;1821447;78;26350;-60
2022/09/30 10:41:37;;;;;;;0.80;0.80;;;;;;;;;;1818123;78;26298;-63
2022/09/30 10:44:06;;;;;;;0.90;0.90;;;;;;;;;;1821510;78;26270;-60
2022/09/30 10:46:35;;;;;;;0.80;0.80;;;;;;;;;;1820667;78;26387;-60
2022/09/30 10:49:04;;;;;;;0.80;0.80;;;;;;;;;;1820271;78;26298;-66
2022/09/30 10:51:35;;;;;;;0.70;0.70;;;;;;;;;;1819067;78;26266;-65
2022/09/30 10:54:03;;;;;;;0.78;0.78;;;;;;;;;;1821254;78;26388;-65
2022/09/30 10:56:36;;;;;;;0.70;0.70;;;;;;;;;;1818822;78;26293;-65
2022/09/30 10:59:04;;;;;;;0.78;0.78;;;;;;;;;;1815762;78;26792;-72
2022/09/30 11:01:42;;;;;;;0.80;0.80;;;;;;;;;;1820671;78;26643;-62
2022/09/30 11:04:17;;;;;;;1.32;0.82;;;;;;;;;;1821216;78;26329;-60
2022/09/30 11:06:45;;;;;;;0.65;0.65;;;;;;;;;;1822399;78;26322;-59
2022/09/30 11:09:14;;;;;;;0.70;0.70;;;;;;;;;;1822156;78;26856;-63
2022/09/30 11:11:43;;;;;;;0.80;0.80;;;;;;;;;;1808062;78;26821;-66
2022/09/30 11:14:15;;;;;;;0.93;0.90;;;;;;;;;;1819335;78;27463;-63
2022/09/30 11:17:02;;;;;;;0.80;0.80;;;;;;;;;;1820659;78;26291;-61
2022/09/30 11:19:31;;;;;;;0.70;0.70;;;;;;;;;;1815303;78;26267;-60
2022/09/30 11:22:03;;;;;;;0.80;0.80;;;;;;;;;;1818689;78;26314;-67
2022/09/30 11:24:41;;;;;;;0.90;0.90;;;;;;;;;;1815844;77;26447;-69
2022/09/30 11:27:25;;;;;;;0.70;0.70;;;;;;;;;;1822834;78;26783;-61
2022/09/30 11:30:03;;;;;;;0.80;0.80;;;;;;;;;;1819135;78;26322;-64
2022/09/30 11:32:32;;;;;;;0.80;0.80;;;;;;;;;;1817181;78;26317;-68
2022/09/30 11:35:01;;;;;;;0.70;0.70;;;;;;;;;;1822331;78;26422;-61
2022/09/30 11:37:30;;;;;;;0.80;0.80;;;;;;;;;;1790927;78;26349;-69
2022/09/30 11:40:04;;;;;;;0.70;0.70;;;;;;;;;;1818783;78;26361;-59
2022/09/30 11:42:48;;;;;;;0.80;0.80;;;;;;;;;;1819315;78;26396;-61
2022/09/30 11:45:26;;;;;;;0.80;0.80;;;;;;;;;;1818874;78;26625;-62
2022/09/30 11:47:57;;;;;;;0.62;0.62;;;;;;;;;;1820482;78;26341;-62
2022/09/30 11:50:29;;;;;;;0.80;0.80;;;;;;;;;;1819317;78;26810;-66
2022/09/30 11:53:07;;;;;;;0.80;0.80;;;;;;;;;;1819327;78;26322;-65
2022/09/30 11:55:42;;;;;;;0.78;0.78;;;;;;;;;;1816216;78;26243;-64
2022/09/30 11:58:14;;;;;;;1.25;1.15;;;;;;;;;;1819238;78;26388;-65
2022/09/30 12:00:43;;;;;;;0.62;0.62;;;;;;;;;;1820397;78;26392;-65
2022/09/30 12:03:16;;;;;;;0.60;0.60;;;;;;;;;;1820206;78;26820;-66
2022/09/30 12:05:45;;;;;;;0.60;0.60;;;;;;;;;;1818064;78;26337;-65
2022/09/30 12:08:14;;;;;;;0.70;0.70;;;;;;;;;;1821533;78;26567;-64
2022/09/30 12:11:01;;;;;;;0.70;0.70;;;;;;;;;;1821880;78;26372;-62
2022/09/30 12:13:32;;;;;;;0.72;0.72;;;;;;;;;;1820402;78;26872;-65
2022/09/30 12:16:00;;;;;;;0.68;0.68;;;;;;;;;;1820555;78;26326;-63
2022/09/30 12:18:32;;;;;;;0.70;0.70;;;;;;;;;;1819257;78;26288;-66
2022/09/30 12:21:01;;;;;;;0.72;0.72;;;;;;;;;;1817400;78;26969;-61
2022/09/30 12:23:41;;;;;;;0.65;0.65;;;;;;;;;;1822048;78;26289;-60
2022/09/30 12:26:10;;;;;;;0.80;0.60;;;;;;;;;;1789176;77;26837;-58
2022/09/30 12:31:44;;;;;;;0.70;0.70;;;;;;;;;;1820951;78;26669;-65
2022/09/30 12:34:25;;;;;;;0.78;0.78;;;;;;;;;;1820936;78;26278;-65
2022/09/30 12:36:57;;;;;;;0.68;0.68;;;;;;;;;;1820525;78;26328;-64
2022/09/30 12:39:35;;;;;;;0.60;0.60;;;;;;;;;;1820604;78;26223;-62
2022/09/30 12:42:13;;;;;;;0.70;0.70;;;;;;;;;;1719734;82;26368;-60
2022/09/30 12:44:42;;;;;;;0.80;0.70;;;;;;;;;;1713619;81;26697;-59
2022/09/30 12:47:17;;;;;;;0.57;0.57;;;;;;;;;;1822303;78;26373;-61
2022/09/30 12:49:45;;;;;;;0.60;0.60;;;;;;;;;;1817152;77;26417;-63
2022/09/30 12:52:14;;;;;;;0.70;0.70;;;;;;;;;;1819229;77;26291;-60
2022/09/30 12:54:43;;;;;;;0.68;0.68;;;;;;;;;;1821365;77;26381;-60
2022/09/30 12:57:11;;;;;;;0.70;0.70;;;;;;;;;;1804205;78;26330;-60
2022/09/30 12:59:39;;;;;;;0.60;0.60;;;;;;;;;;1820229;77;26337;-62
2022/09/30 13:02:07;;;;;;;0.70;0.70;;;;;;;;;;1819715;78;26271;-59
2022/09/30 13:04:36;;;;;;;0.80;0.80;;;;;;;;;;1821447;77;26287;-63
2022/09/30 13:07:05;;;;;;;1.00;0.90;;;;;;;;;;1820014;77;26736;-60
2022/09/30 13:09:36;;;;;;;4.03;0.90;;;;;;;;;;1818579;78;26340;-63
2022/09/30 13:12:05;;;;;;;2.90;0.80;;;;;;;;;;1821659;77;26332;-64
2022/09/30 13:14:38;;;;;;;1.15;0.88;;;;;;;;;;1820886;78;26352;-64
2022/09/30 13:17:12;;;;;;;1.12;0.80;;;;;;;;;;1821221;78;26282;-67
2022/09/30 13:19:44;;;;;;;2.52;0.82;;;;;;;;;;1821265;78;26368;-64
2022/09/30 13:25:16;;;;;;;0.80;0.80;;;;;;;;;;1841841;76;26331;-62
2022/09/30 13:27:49;;;;;;;1.20;0.75;;;;;;;;;;1844393;76;26341;-63
2022/09/30 13:30:18;;;;;;;1.00;0.80;;;;;;;;;;1844633;76;26219;-63
2022/09/30 13:32:51;;;;;;;0.88;0.85;;;;;;;;;;1844662;76;26342;-65
2022/09/30 13:35:36;;;;;;;1.22;0.80;;;;;;;;;;1846035;76;26314;-64
2022/09/30 13:38:14;;;;;;;0.80;0.80;;;;;;;;;;1842114;76;27402;-67
2022/09/30 13:40:49;;;;;;;1.12;0.72;;;;;;;;;;1844954;78;26260;-62
2022/09/30 13:43:17;;;;;;;0.72;0.60;;;;;;;;;;1843708;76;26526;-62
2022/09/30 13:45:45;;;;;;;0.72;0.60;;;;;;;;;;1843838;76;26330;-64
2022/09/30 13:48:14;;;;;;;0.88;0.60;;;;;;;;;;1844108;76;26267;-63
2022/09/30 13:50:45;;;;;;;0.68;0.68;;;;;;;;;;1844130;76;26291;-67
2022/09/30 13:53:14;;;;;;;0.60;0.60;;;;;;;;;;1843408;76;26291;-63
2022/09/30 13:55:45;;;;;;;0.70;0.70;;;;;;;;;;1814940;76;26774;-65
2022/09/30 13:58:33;;;;;;;0.85;0.70;;;;;;;;;;1844373;76;26597;-66
2022/09/30 14:01:18;;;;;;;0.65;0.65;;;;;;;;;;1844793;76;26303;-68
2022/09/30 14:03:47;;;;;;;0.70;0.70;;;;;;;;;;1844391;76;26286;-63
2022/09/30 14:06:16;;;;;;;0.70;0.70;;;;;;;;;;1842422;76;26304;-63
2022/09/30 14:08:50;;;;;;;0.45;0.45;;;;;;;;;;1843783;76;26909;-64
2022/09/30 14:11:19;;;;;;;0.78;0.78;;;;;;;;;;1844554;76;26305;-65
2022/09/30 14:14:04;;;;;;;0.70;0.70;;;;;;;;;;1844639;76;26422;-63
2022/09/30 14:16:36;;;;;;;1.95;1.05;;;;;;;;;;1844588;76;26353;-62
2022/09/30 14:19:05;;;;;;;0.70;0.70;;;;;;;;;;1843054;76;26727;-66
2022/09/30 14:21:39;;;;;;;0.57;0.57;;;;;;;;;;1843519;76;26389;-65
2022/09/30 14:24:16;;;;;;;0.60;0.60;;;;;;;;;;1853562;76;26308;-62
2022/09/30 14:26:47;;;;;;;0.70;0.70;;;;;;;;;;1861783;77;26790;-63
2022/09/30 14:29:35;;;;;;;0.80;0.80;;;;;;;;;;1856799;77;26311;-63
2022/09/30 14:32:03;;;;;;;0.60;0.60;;;;;;;;;;1857831;76;26217;-64
2022/09/30 14:34:32;;;;;;;0.70;0.70;;;;;;;;;;1857171;77;26319;-62
2022/09/30 14:37:00;;;;;;;0.62;0.62;;;;;;;;;;1860882;77;26271;-63
2022/09/30 14:39:28;;;;;;;0.60;0.60;;;;;;;;;;1858892;77;26333;-64
2022/09/30 14:41:57;;;;;;;0.50;0.50;;;;;;;;;;1853558;77;26247;-63
2022/09/30 14:44:26;;;;;;;0.57;0.57;;;;;;;;;;1860001;77;26726;-62
2022/09/30 14:47:00;;;;;;;0.60;0.60;;;;;;;;;;1861263;77;26356;-65
2022/09/30 14:49:31;;;;;;;0.70;0.70;;;;;;;;;;1861150;77;26338;-63
2022/09/30 14:51:53;;;;;;;0.70;0.70;;;;;;;;;;1859761;75;26311;-63
2022/09/30 14:54:22;;;;;;;0.60;0.60;;;;;;;;;;1863106;77;26753;-62
2022/09/30 14:56:52;;;;;;;0.65;0.65;;;;;;;;;;1863698;77;26373;-70
2022/09/30 14:59:21;;;;;;;0.62;0.62;;;;;;;;;;1860877;77;26409;-62
2022/09/30 15:01:50;;;;;;;1.10;0.70;;;;;;;;;;1861672;77;26877;-62
2022/09/30 15:04:19;;;;;;;0.50;0.50;;;;;;;;;;1860887;77;26286;-64
2022/09/30 15:06:48;;;;;;;0.60;0.60;;;;;;;;;;1862649;77;26785;-63
2022/09/30 15:09:22;;;;;;;0.53;0.53;;;;;;;;;;1862617;77;26299;-68
2022/09/30 15:11:50;;;;;;;0.50;0.50;;;;;;;;;;1857854;77;26303;-63
2022/09/30 15:14:19;;;;;;;0.57;0.57;;;;;;;;;;1861294;77;26815;-63
2022/09/30 15:16:51;;;;;;;0.70;0.70;;;;;;;;;;1863001;77;26819;-63
2022/09/30 15:19:25;;;;;;;0.55;0.55;;;;;;;;;;1853458;77;26259;-64